Oakland, CA (94659)

7:40 AM PST on February 06, 2016 (GMT -0800)
Downtown Oakland | | Change Station
CLOSE
Current Station
Personal Weather Station
Location: Oakland, CA
Elevation: 16 ft
Nearby Weather Stations

Elev 16 ft 37.81 °N, 122.27 °W | Updated 40 seconds ago

Clear
Clear
49.4 °F
Feels Like 49 °F
N
0.0
Wind Variable Wind from South
Gusts 1.0 mph

Today
High -- | Low -- °F
--% Chance of Precip.
Yesterday
High -- | Low -- °F
Precip. -- in
Pressure 30.41 in
Visibility 8.0 miles
Clouds Few 20000 ft
Windchill 49 °F
Dew Point 46 °F
Humidity 88%
Rainfall 0.00 in
Snow Depth Not available.
7:08 AM 5:37 PM
Waning Crescent, 5% visible
METAR KOAK 061453Z 00000KT 8SM FEW200 06/04 A3042 RMK AO2 SLP298 T00610039 51009
Pressure 30.41 in
Visibility 8.0 miles
Clouds Few 20000 ft
Windchill 49 °F
Dew Point 46 °F
Humidity 88%
Rainfall 0.00 in
Snow Depth Not available.
7:08 AM 5:37 PM
Waning Crescent, 5% visible
METAR KOAK 061453Z 00000KT 8SM FEW200 06/04 A3042 RMK AO2 SLP298 T00610039 51009

10-Day Weather Forecast

Almanac

Astronomy

Feb. 06, 2016 Rise Set
Actual Time
Civil Twilight
Nautical Twilight
Astronomical Twilight
Moon
Length of Visible Light
Length of Day
Tomorrow will be .
, % of the Moon is Illuminated

Today's Extremes

State Highs State Lows

Community

WunderPhotos

Upload Photos

1,890,987 photos uploaded!

WunderBlog® & News

Nearby

Air Quality

  Air Quality AQ Index Pollutant
Not available.

Snow Depth

Station Depth Elevation

Earthquake Activity

City Distance Mag. Time & Date
Minimum magnitude displayed is 2.5.

Coastal Water Temperatures

Place Temperature

Stations

Nearby Weather Stations

Station Location Temp. Windchill Dew Point Humidity Wind Precip. Elev Updated Type
                   

Watches & Warnings

There are currently no watches in effect.